createdAt,value
2018-10-17T00:00:18.752Z,97576.25
2018-10-17T00:02:47.512Z,97571.77
2018-10-17T00:05:16.111Z,97577.53
2018-10-17T00:07:45.174Z,97581.88
2018-10-17T00:10:13.943Z,97580.69
2018-10-17T00:12:42.547Z,97580.00
2018-10-17T00:15:11.425Z,97586.87
2018-10-17T00:17:40.135Z,97583.33
2018-10-17T00:20:09.820Z,97585.43
2018-10-17T00:22:38.496Z,97584.98
2018-10-17T00:25:07.927Z,97582.14
2018-10-17T00:27:36.648Z,97580.70
2018-10-17T00:30:07.203Z,97571.98
2018-10-17T00:32:35.916Z,97568.77
2018-10-17T00:35:04.574Z,97570.18
2018-10-17T00:37:33.244Z,97569.10
2018-10-17T00:40:01.868Z,97569.54
2018-10-17T00:42:30.508Z,97568.41
2018-10-17T00:44:59.199Z,97570.56
2018-10-17T00:47:27.811Z,97578.34
2018-10-17T00:49:56.583Z,97567.46
2018-10-17T00:52:25.267Z,97568.87
2018-10-17T00:54:53.890Z,97560.34
2018-10-17T00:57:22.428Z,97566.02
2018-10-17T00:59:51.116Z,97562.64
2018-10-17T01:02:19.698Z,97559.31
2018-10-17T01:04:48.286Z,97563.31
2018-10-17T01:07:17.024Z,97555.77
2018-10-17T01:09:45.736Z,97552.52
2018-10-17T01:12:14.340Z,97555.95
2018-10-17T01:14:43.008Z,97555.20
2018-10-17T01:17:11.601Z,97554.89
2018-10-17T01:19:40.209Z,97559.45
2018-10-17T01:22:08.978Z,97555.52
2018-10-17T01:24:37.567Z,97557.44
2018-10-17T01:27:06.232Z,97548.53
2018-10-17T01:29:35.212Z,97546.83
2018-10-17T01:32:03.884Z,97543.84
2018-10-17T01:34:32.604Z,97545.86
2018-10-17T01:37:01.268Z,97544.94
2018-10-17T01:39:29.851Z,97547.22
2018-10-17T01:41:58.431Z,97542.96
2018-10-17T01:44:27.359Z,97539.20
2018-10-17T01:46:56.005Z,97542.39
2018-10-17T01:49:24.952Z,97539.84
2018-10-17T01:51:53.618Z,97541.25
2018-10-17T01:54:22.224Z,97532.92
2018-10-17T01:56:50.799Z,97528.09
2018-10-17T01:59:19.429Z,97536.16
2018-10-17T02:01:48.044Z,97527.73
2018-10-17T02:04:16.764Z,97524.72
2018-10-17T02:06:45.505Z,97525.23
2018-10-17T02:09:14.129Z,97527.47
2018-10-17T02:11:42.740Z,97519.53
2018-10-17T02:14:11.443Z,97526.45
2018-10-17T02:16:40.065Z,97527.68
2018-10-17T02:19:08.734Z,97534.96
2018-10-17T02:21:37.410Z,97531.75
2018-10-17T02:24:06.864Z,97519.92
2018-10-17T02:26:35.468Z,97529.25
2018-10-17T02:29:04.236Z,97522.38
2018-10-17T02:31:32.737Z,97520.44
2018-10-17T02:34:01.508Z,97521.31
2018-10-17T02:36:30.253Z,97519.30
2018-10-17T02:38:58.840Z,97520.05
2018-10-17T02:41:27.957Z,97515.92
2018-10-17T02:43:56.709Z,97513.25
2018-10-17T02:46:25.299Z,97512.34
2018-10-17T02:48:53.918Z,97516.63
2018-10-17T02:51:22.738Z,97511.72
2018-10-17T02:53:51.331Z,97509.61
2018-10-17T02:56:19.933Z,97510.70
2018-10-17T02:58:48.570Z,97504.66
2018-10-17T03:01:17.258Z,97511.61
2018-10-17T03:03:45.767Z,97504.73
2018-10-17T03:06:14.547Z,97511.84
2018-10-17T03:08:43.148Z,97509.74
2018-10-17T03:11:11.853Z,97511.92
2018-10-17T03:13:40.455Z,97503.52
2018-10-17T03:16:09.047Z,97511.48
2018-10-17T03:18:37.643Z,97516.48
2018-10-17T03:21:06.290Z,97514.70
2018-10-17T03:23:34.910Z,97519.78
2018-10-17T03:26:03.490Z,97519.21
2018-10-17T03:28:32.207Z,97526.01
2018-10-17T03:31:00.797Z,97526.97
2018-10-17T03:33:29.399Z,97524.86
2018-10-17T03:35:58.515Z,97522.27
2018-10-17T03:38:27.060Z,97515.30
2018-10-17T03:40:55.695Z,97514.95
2018-10-17T03:43:24.368Z,97515.67
2018-10-17T03:45:52.956Z,97514.02
2018-10-17T03:48:21.524Z,97517.30
2018-10-17T03:50:50.552Z,97515.59
2018-10-17T03:53:19.233Z,97515.16
2018-10-17T03:55:47.764Z,97519.02
2018-10-17T03:58:16.405Z,97518.34
2018-10-17T04:00:45.045Z,97513.87
2018-10-17T04:03:13.709Z,97513.72
2018-10-17T04:05:42.388Z,97513.58
2018-10-17T04:08:11.025Z,97514.15
2018-10-17T04:10:39.672Z,97515.34
2018-10-17T04:13:08.468Z,97517.05
2018-10-17T04:15:37.044Z,97518.56
2018-10-17T04:18:05.728Z,97517.73
2018-10-17T04:20:34.551Z,97518.60
2018-10-17T04:23:03.420Z,97518.36
2018-10-17T04:25:32.004Z,97520.14
2018-10-17T04:28:00.646Z,97522.36
2018-10-17T04:30:29.243Z,97532.23
2018-10-17T04:32:57.828Z,97532.88
2018-10-17T04:35:26.513Z,97533.27
2018-10-17T04:37:55.155Z,97530.27
2018-10-17T04:40:23.728Z,97530.34
2018-10-17T04:42:52.352Z,97536.13
2018-10-17T04:45:20.955Z,97537.01
2018-10-17T04:47:49.704Z,97534.31
2018-10-17T04:50:18.325Z,97535.97
2018-10-17T04:52:47.407Z,97526.09
2018-10-17T04:55:16.025Z,97526.58
2018-10-17T04:57:44.608Z,97528.39
2018-10-17T05:00:13.843Z,97524.78
2018-10-17T05:02:43.732Z,97525.11
2018-10-17T05:05:13.112Z,97525.86
2018-10-17T05:07:41.745Z,97521.81
2018-10-17T05:10:10.357Z,97525.30
2018-10-17T05:12:38.970Z,97523.80
2018-10-17T05:15:07.754Z,97521.02
2018-10-17T05:17:36.448Z,97518.16
2018-10-17T05:20:05.648Z,97519.95
2018-10-17T05:22:34.228Z,97518.88
2018-10-17T05:25:02.873Z,97520.66
2018-10-17T05:27:31.579Z,97527.84
2018-10-17T05:30:00.181Z,97525.34
2018-10-17T05:32:28.863Z,97525.66
2018-10-17T05:34:57.490Z,97524.70
2018-10-17T05:37:26.108Z,97523.35
2018-10-17T05:39:54.768Z,97529.58
2018-10-17T05:42:23.516Z,97527.59
2018-10-17T05:44:52.089Z,97534.31
2018-10-17T05:47:20.748Z,97533.20
2018-10-17T05:49:49.336Z,97532.56
2018-10-17T05:52:17.895Z,97534.19
2018-10-17T05:54:46.924Z,97536.53
2018-10-17T05:57:15.484Z,97539.91
2018-10-17T05:59:44.064Z,97546.58
2018-10-17T06:02:16.580Z,97537.17
2018-10-17T06:04:45.655Z,97542.09
2018-10-17T06:07:14.757Z,97538.47
2018-10-17T06:09:45.146Z,97542.99
2018-10-17T06:12:16.307Z,97540.81
2018-10-17T06:14:46.616Z,97543.06
2018-10-17T06:17:15.972Z,97543.55
2018-10-17T06:19:46.291Z,97556.60
2018-10-17T06:22:15.228Z,97547.88
2018-10-17T06:24:45.433Z,97554.55
2018-10-17T06:27:15.575Z,97555.27
2018-10-17T06:29:46.276Z,97557.56
2018-10-17T06:32:15.895Z,97556.22
2018-10-17T06:34:46.201Z,97549.75
2018-10-17T06:37:16.141Z,97557.77
2018-10-17T06:39:46.579Z,97558.52
2018-10-17T06:42:17.035Z,97553.31
2018-10-17T06:44:47.103Z,97562.48
2018-10-17T06:47:17.406Z,97561.84
2018-10-17T06:49:48.655Z,97570.89
2018-10-17T06:52:18.031Z,97570.61
2018-10-17T06:54:49.629Z,97567.50
2018-10-17T06:57:18.736Z,97570.51
2018-10-17T06:59:49.766Z,97560.09
2018-10-17T07:02:19.734Z,97567.70
2018-10-17T07:04:50.730Z,97563.64
2018-10-17T07:07:19.476Z,97561.95
2018-10-17T07:09:50.679Z,97562.92
2018-10-17T07:12:19.269Z,97561.02
2018-10-17T07:14:49.024Z,97564.61
2018-10-17T07:17:18.325Z,97560.52
2018-10-17T07:19:49.286Z,97557.02
2018-10-17T07:22:19.644Z,97558.00
2018-10-17T07:24:50.177Z,97558.25
2018-10-17T07:27:18.771Z,97560.95
2018-10-17T07:29:47.561Z,97559.14
2018-10-17T07:32:15.944Z,97555.70
2018-10-17T07:34:44.539Z,97557.52
2018-10-17T07:37:13.109Z,97555.94
2018-10-17T07:39:41.672Z,97552.80
2018-10-17T07:42:10.331Z,97553.00
2018-10-17T07:44:38.935Z,97559.42
2018-10-17T07:47:07.533Z,97564.95
2018-10-17T07:49:36.238Z,97565.31
2018-10-17T07:52:05.472Z,97565.97
2018-10-17T07:54:34.073Z,97561.25
2018-10-17T07:57:03.192Z,97567.96
2018-10-17T07:59:31.829Z,97564.38
2018-10-17T08:02:00.363Z,97569.02
2018-10-17T08:04:29.047Z,97559.95
2018-10-17T08:06:57.627Z,97564.02
2018-10-17T08:09:26.196Z,97567.83
2018-10-17T08:11:54.868Z,97572.16
2018-10-17T08:14:23.404Z,97570.82
2018-10-17T08:16:51.985Z,97568.41
2018-10-17T08:19:20.683Z,97565.73
2018-10-17T08:21:49.271Z,97571.24
2018-10-17T08:24:17.994Z,97570.37
2018-10-17T08:26:46.561Z,97567.79
2018-10-17T08:29:15.782Z,97566.08
2018-10-17T08:31:44.415Z,97572.55
2018-10-17T08:34:13.047Z,97567.70
2018-10-17T08:36:41.782Z,97564.56
2018-10-17T08:39:11.137Z,97557.46
2018-10-17T08:41:39.764Z,97567.21
2018-10-17T08:44:08.384Z,97555.66
2018-10-17T08:46:36.975Z,97555.50
2018-10-17T08:49:05.979Z,97554.08
2018-10-17T08:51:34.548Z,97554.16
2018-10-17T08:54:03.564Z,97556.77
2018-10-17T08:56:32.180Z,97561.02
2018-10-17T08:59:00.771Z,97556.70
2018-10-17T09:01:29.373Z,97556.91
2018-10-17T09:03:58.009Z,97561.66
2018-10-17T09:06:26.620Z,97557.25
2018-10-17T09:08:55.200Z,97555.13
2018-10-17T09:11:23.829Z,97556.34
2018-10-17T09:13:52.468Z,97561.13
2018-10-17T09:16:21.062Z,97562.63
2018-10-17T09:18:49.686Z,97566.21
2018-10-17T09:21:18.683Z,97564.21
2018-10-17T09:23:46.844Z,97567.48
2018-10-17T09:26:15.547Z,97559.97
2018-10-17T09:28:44.112Z,97556.70
2018-10-17T09:31:12.681Z,97563.95
2018-10-17T09:33:41.358Z,97560.59
2018-10-17T09:36:09.947Z,97557.16
2018-10-17T09:38:38.508Z,97556.30
2018-10-17T09:41:07.268Z,97560.75
2018-10-17T09:43:35.852Z,97555.50
2018-10-17T09:46:04.870Z,97553.59
2018-10-17T09:48:33.488Z,97554.16
2018-10-17T09:51:02.072Z,97553.33
2018-10-17T09:53:30.898Z,97553.61
2018-10-17T09:55:59.419Z,97556.16
2018-10-17T09:58:28.000Z,97550.04
2018-10-17T10:01:01.852Z,97549.48
2018-10-17T10:03:30.450Z,97551.64
2018-10-17T10:05:59.014Z,97539.65
2018-10-17T10:08:27.599Z,97536.95
2018-10-17T10:10:56.207Z,97539.72
2018-10-17T10:13:24.771Z,97537.47
2018-10-17T10:15:53.560Z,97536.64
2018-10-17T10:18:22.068Z,97530.41
2018-10-17T10:20:50.676Z,97525.52
2018-10-17T10:23:19.336Z,97530.81
2018-10-17T10:25:47.905Z,97527.45
2018-10-17T10:28:16.591Z,97525.42
2018-10-17T10:30:45.179Z,97525.28
2018-10-17T10:33:13.783Z,97518.38
2018-10-17T10:35:42.360Z,97519.80
2018-10-17T10:38:11.109Z,97516.98
2018-10-17T10:40:39.762Z,97514.19
2018-10-17T10:43:08.690Z,97514.53
2018-10-17T10:45:37.465Z,97514.20
2018-10-17T10:48:06.053Z,97505.80
2018-10-17T10:50:34.804Z,97516.79
2018-10-17T10:53:03.526Z,97516.84
2018-10-17T10:55:32.110Z,97516.06
2018-10-17T10:58:00.737Z,97516.03
2018-10-17T11:00:29.296Z,97517.77
2018-10-17T11:02:57.928Z,97516.85
2018-10-17T11:05:26.606Z,97516.99
2018-10-17T11:07:55.224Z,97508.84
2018-10-17T11:10:23.740Z,97506.16
2018-10-17T11:12:52.315Z,97504.61
2018-10-17T11:15:21.042Z,97505.84
2018-10-17T11:17:49.579Z,97501.45
2018-10-17T11:20:18.156Z,97497.61
2018-10-17T11:22:47.113Z,97493.56
2018-10-17T11:25:15.695Z,97494.59
2018-10-17T11:27:44.304Z,97490.02
2018-10-17T11:30:13.004Z,97483.13
2018-10-17T11:32:41.587Z,97485.80
2018-10-17T11:35:11.374Z,97478.84
2018-10-17T11:37:39.936Z,97484.03
2018-10-17T11:40:09.357Z,97480.19
2018-10-17T11:42:37.944Z,97481.02
2018-10-17T11:45:07.188Z,97474.02
2018-10-17T11:47:35.968Z,97474.39
2018-10-17T11:50:05.748Z,97477.31
2018-10-17T11:52:34.387Z,97475.32
2018-10-17T11:55:02.999Z,97466.03
2018-10-17T11:57:31.910Z,97470.82
2018-10-17T12:00:00.659Z,97467.45
2018-10-17T12:02:29.283Z,97459.98
2018-10-17T12:04:58.097Z,97464.24
2018-10-17T12:07:26.619Z,97455.98
2018-10-17T12:09:55.208Z,97454.43
2018-10-17T12:12:23.917Z,97451.79
2018-10-17T12:14:52.406Z,97452.53
2018-10-17T12:17:21.005Z,97452.25
2018-10-17T12:19:49.590Z,97449.55
2018-10-17T12:22:18.266Z,97446.77
2018-10-17T12:24:46.884Z,97440.03
2018-10-17T12:27:15.513Z,97444.83
2018-10-17T12:29:44.184Z,97446.70
2018-10-17T12:32:12.740Z,97438.52
2018-10-17T12:34:41.300Z,97431.02
2018-10-17T12:37:09.992Z,97430.16
2018-10-17T12:39:38.578Z,97427.09
2018-10-17T12:42:07.146Z,97424.16
2018-10-17T12:44:35.844Z,97423.66
2018-10-17T12:47:04.484Z,97425.17
2018-10-17T12:49:33.094Z,97423.47
2018-10-17T12:52:01.809Z,97424.33
2018-10-17T12:54:30.380Z,97419.88
2018-10-17T12:56:59.037Z,97420.16
2018-10-17T12:59:28.035Z,97422.36
2018-10-17T13:01:56.640Z,97418.59
2018-10-17T13:04:25.232Z,97419.89
2018-10-17T13:06:53.984Z,97420.98
2018-10-17T13:09:22.605Z,97423.89
2018-10-17T13:11:51.188Z,97418.47
2018-10-17T13:14:20.260Z,97410.03
2018-10-17T13:16:48.852Z,97405.33
2018-10-17T13:19:17.524Z,97412.05
2018-10-17T13:21:46.208Z,97404.92
2018-10-17T13:24:14.783Z,97404.15
2018-10-17T13:26:43.380Z,97401.77
2018-10-17T13:29:12.048Z,97401.48
2018-10-17T13:31:40.604Z,97398.04
2018-10-17T13:34:09.253Z,97400.16
2018-10-17T13:36:37.959Z,97400.34
2018-10-17T13:39:10.200Z,97392.38
2018-10-17T13:41:38.832Z,97391.84
2018-10-17T13:44:08.424Z,97391.77
2018-10-17T13:46:37.047Z,97395.25
2018-10-17T13:49:06.042Z,97391.30
2018-10-17T13:51:34.577Z,97392.73
2018-10-17T13:54:03.163Z,97396.68
2018-10-17T13:56:32.128Z,97395.42
2018-10-17T13:59:00.779Z,97394.75
2018-10-17T14:01:29.384Z,97396.68
2018-10-17T14:03:57.982Z,97393.92
2018-10-17T14:06:26.612Z,97389.58
2018-10-17T14:08:55.234Z,97388.16
2018-10-17T14:11:23.843Z,97395.23
2018-10-17T14:13:52.410Z,97392.03
2018-10-17T14:16:21.003Z,97384.35
2018-10-17T14:18:49.732Z,97390.31
2018-10-17T14:21:18.391Z,97387.13
2018-10-17T14:23:46.983Z,97386.30
2018-10-17T14:26:15.704Z,97391.42
2018-10-17T14:28:44.284Z,97392.98
2018-10-17T14:31:12.875Z,97390.13
2018-10-17T14:33:41.556Z,97385.91
2018-10-17T14:36:10.221Z,97383.94
2018-10-17T14:38:38.834Z,97385.49
2018-10-17T14:41:07.577Z,97384.17
2018-10-17T14:43:36.183Z,97380.97
2018-10-17T14:46:05.079Z,97379.50
2018-10-17T14:48:33.717Z,97384.73
2018-10-17T14:51:02.329Z,97381.94
2018-10-17T14:53:30.930Z,97385.58
2018-10-17T14:55:59.719Z,97385.43
2018-10-17T14:58:28.341Z,97382.58
2018-10-17T15:00:56.927Z,97383.46
2018-10-17T15:03:25.613Z,97384.13
2018-10-17T15:05:54.408Z,97378.55
2018-10-17T15:08:22.985Z,97384.17
2018-10-17T15:10:51.921Z,97380.65
2018-10-17T15:13:20.240Z,97377.64
2018-10-17T15:15:48.840Z,97374.84
2018-10-17T15:18:17.976Z,97378.83
2018-10-17T15:20:46.565Z,97377.23
2018-10-17T15:23:15.157Z,97379.59
2018-10-17T15:25:44.147Z,97385.63
2018-10-17T15:28:12.727Z,97382.83
2018-10-17T15:30:41.316Z,97384.38
2018-10-17T15:33:10.032Z,97379.97
2018-10-17T15:35:38.536Z,97382.22
2018-10-17T15:38:07.108Z,97380.11
2018-10-17T15:43:03.553Z,97381.58
2018-10-17T15:45:32.292Z,97383.11
2018-10-17T15:48:00.999Z,97382.19
2018-10-17T15:50:29.538Z,97375.98
2018-10-17T15:52:58.125Z,97380.27
2018-10-17T15:55:26.842Z,97381.55
2018-10-17T15:57:55.564Z,97377.11
2018-10-17T16:00:24.140Z,97385.09
2018-10-17T16:02:52.868Z,97375.59
2018-10-17T16:05:21.440Z,97382.39
2018-10-17T16:07:50.036Z,97376.88
2018-10-17T16:10:18.712Z,97378.91
2018-10-17T16:12:47.304Z,97376.93
2018-10-17T16:15:15.876Z,97379.09
2018-10-17T16:17:44.908Z,97379.55
2018-10-17T16:20:13.808Z,97380.52
2018-10-17T16:22:42.750Z,97379.83
2018-10-17T16:25:11.381Z,97378.78
2018-10-17T16:27:39.959Z,97379.33
2018-10-17T16:30:10.854Z,97388.34
2018-10-17T16:32:39.427Z,97387.77
2018-10-17T16:35:08.593Z,97388.75
2018-10-17T16:37:38.024Z,97394.36
2018-10-17T16:40:08.184Z,97396.95
2018-10-17T16:42:36.763Z,97403.72
2018-10-17T16:45:06.332Z,97407.59
2018-10-17T16:47:35.081Z,97407.93
2018-10-17T16:50:03.710Z,97410.73
2018-10-17T16:52:32.256Z,97415.19
2018-10-17T16:55:00.897Z,97423.73
2018-10-17T16:57:29.536Z,97420.92
2018-10-17T16:59:58.514Z,97413.53
2018-10-17T17:02:27.093Z,97421.58
2018-10-17T17:04:55.664Z,97421.31
2018-10-17T17:07:24.456Z,97424.60
2018-10-17T17:09:53.031Z,97427.72
2018-10-17T17:12:21.620Z,97424.66
2018-10-17T17:14:50.644Z,97423.46
2018-10-17T17:17:19.340Z,97426.38
2018-10-17T17:19:48.811Z,97424.13
2018-10-17T17:22:17.541Z,97424.55
2018-10-17T17:24:46.196Z,97425.59
2018-10-17T17:27:15.858Z,97430.81
2018-10-17T17:29:45.026Z,97432.53
2018-10-17T17:32:13.952Z,97431.23
2018-10-17T17:34:42.588Z,97440.99
2018-10-17T17:37:11.232Z,97438.05
2018-10-17T17:39:39.799Z,97444.00
2018-10-17T17:42:08.673Z,97442.92
2018-10-17T17:44:37.306Z,97448.00
2018-10-17T17:47:06.933Z,97446.93
2018-10-17T17:49:35.504Z,97448.06
2018-10-17T17:52:04.152Z,97445.45
2018-10-17T17:54:32.712Z,97447.41
2018-10-17T17:57:01.305Z,97453.50
2018-10-17T17:59:29.951Z,97453.80
2018-10-17T18:01:58.527Z,97461.75
2018-10-17T18:04:27.185Z,97456.91
2018-10-17T18:06:55.719Z,97456.91
2018-10-17T18:09:24.308Z,97460.35
2018-10-17T18:11:52.887Z,97463.50
2018-10-17T18:14:21.592Z,97463.58
2018-10-17T18:16:50.079Z,97460.52
2018-10-17T18:19:18.640Z,97473.23
2018-10-17T18:21:47.280Z,97473.19
2018-10-17T18:24:15.864Z,97474.55
2018-10-17T18:26:44.443Z,97474.30
2018-10-17T18:29:13.391Z,97476.70
2018-10-17T18:31:41.955Z,97473.72
2018-10-17T18:34:10.603Z,97475.64
2018-10-17T18:36:39.215Z,97476.35
2018-10-17T18:39:08.700Z,97480.91
2018-10-17T18:41:37.295Z,97471.80
2018-10-17T18:44:06.052Z,97482.39
2018-10-17T18:46:34.724Z,97486.24
2018-10-17T18:49:03.291Z,97487.13
2018-10-17T18:51:31.908Z,97482.85
2018-10-17T18:54:01.072Z,97491.32
2018-10-17T18:56:29.739Z,97493.52
2018-10-17T18:58:58.660Z,97499.27
2018-10-17T19:01:27.316Z,97502.04
2018-10-17T19:03:55.881Z,97500.07
2018-10-17T19:06:24.576Z,97503.80
2018-10-17T19:08:53.187Z,97509.39
2018-10-17T19:11:21.754Z,97512.91
2018-10-17T19:13:50.419Z,97511.56
2018-10-17T19:16:19.049Z,97512.27
2018-10-17T19:18:47.607Z,97508.16
2018-10-17T19:21:16.335Z,97516.13
2018-10-17T19:23:44.861Z,97510.81
2018-10-17T19:26:13.466Z,97514.02
2018-10-17T19:28:42.083Z,97512.08
2018-10-17T19:31:10.664Z,97516.00
2018-10-17T19:33:39.243Z,97516.94
2018-10-17T19:36:07.940Z,97519.98
2018-10-17T19:38:36.443Z,97524.40
2018-10-17T19:41:05.243Z,97530.09
2018-10-17T19:43:34.103Z,97532.38
2018-10-17T19:46:02.668Z,97532.83
2018-10-17T19:48:31.252Z,97535.40
2018-10-17T19:50:59.866Z,97529.18
2018-10-17T19:53:28.455Z,97533.29
2018-10-17T19:55:57.153Z,97537.96
2018-10-17T19:58:25.692Z,97530.48
2018-10-17T20:00:54.292Z,97530.77
2018-10-17T20:03:22.860Z,97532.14
2018-10-17T20:05:51.547Z,97530.77
2018-10-17T20:08:20.131Z,97532.41
2018-10-17T20:10:48.722Z,97531.84
2018-10-17T20:13:17.428Z,97528.38
2018-10-17T20:15:46.044Z,97531.50
2018-10-17T20:18:14.619Z,97534.23
2018-10-17T20:20:43.448Z,97534.41
2018-10-17T20:23:12.023Z,97530.50
2018-10-17T20:25:40.588Z,97530.31
2018-10-17T20:28:09.267Z,97536.52
2018-10-17T20:30:37.840Z,97539.80
2018-10-17T20:33:06.607Z,97539.00
2018-10-17T20:35:35.160Z,97544.31
2018-10-17T20:38:03.727Z,97534.78
2018-10-17T20:40:32.299Z,97543.73
2018-10-17T20:43:01.091Z,97545.59
2018-10-17T20:45:29.715Z,97543.64
2018-10-17T20:47:58.336Z,97540.00
2018-10-17T20:50:27.984Z,97547.41
2018-10-17T20:52:56.729Z,97547.03
2018-10-17T20:55:25.455Z,97551.33
2018-10-17T20:57:54.080Z,97552.53
2018-10-17T21:00:22.791Z,97544.40
2018-10-17T21:02:51.387Z,97547.84
2018-10-17T21:05:19.987Z,97542.00
2018-10-17T21:07:48.580Z,97549.61
2018-10-17T21:10:17.185Z,97545.95
2018-10-17T21:12:45.892Z,97545.38
2018-10-17T21:15:14.512Z,97541.36
2018-10-17T21:17:43.356Z,97542.36
2018-10-17T21:20:13.484Z,97552.98
2018-10-17T21:22:48.310Z,97549.77
2018-10-17T21:25:18.697Z,97553.78
2018-10-17T21:27:47.399Z,97548.54
2018-10-17T21:30:16.024Z,97547.51
2018-10-17T21:32:44.832Z,97547.31
2018-10-17T21:35:13.488Z,97546.56
2018-10-17T21:37:42.114Z,97551.84
2018-10-17T21:40:10.865Z,97548.84
2018-10-17T21:42:39.692Z,97547.35
2018-10-17T21:45:08.315Z,97542.69
2018-10-17T21:47:36.943Z,97542.30
2018-10-17T21:50:06.014Z,97547.10
2018-10-17T21:52:34.562Z,97546.27
2018-10-17T21:55:03.183Z,97539.43
2018-10-17T21:57:32.003Z,97531.14
2018-10-17T22:00:00.596Z,97532.70
2018-10-17T22:02:29.332Z,97533.97
2018-10-17T22:04:57.920Z,97533.25
2018-10-17T22:07:26.491Z,97533.87
2018-10-17T22:09:55.293Z,97539.22
2018-10-17T22:12:23.863Z,97529.92
2018-10-17T22:14:52.503Z,97522.17
2018-10-17T22:17:26.231Z,97532.70
2018-10-17T22:19:54.922Z,97530.11
2018-10-17T22:22:23.660Z,97525.05
2018-10-17T22:24:52.743Z,97532.12
2018-10-17T22:27:21.711Z,97531.48
2018-10-17T22:29:50.402Z,97525.78
2018-10-17T22:32:19.096Z,97523.44
2018-10-17T22:34:47.705Z,97524.61
2018-10-17T22:37:16.327Z,97528.16
2018-10-17T22:39:45.184Z,97530.70
2018-10-17T22:42:13.773Z,97528.03
2018-10-17T22:44:42.393Z,97528.07
2018-10-17T22:47:11.155Z,97537.96
2018-10-17T22:49:39.748Z,97536.91
2018-10-17T22:52:08.331Z,97539.64
2018-10-17T22:54:37.015Z,97536.89
2018-10-17T22:57:05.656Z,97542.28
2018-10-17T22:59:34.244Z,97534.71
2018-10-17T23:02:03.024Z,97539.06
2018-10-17T23:04:31.559Z,97530.52
2018-10-17T23:07:00.167Z,97534.89
2018-10-17T23:09:28.823Z,97534.23
2018-10-17T23:11:57.428Z,97535.73
2018-10-17T23:14:26.020Z,97532.23
2018-10-17T23:16:54.736Z,97533.16
2018-10-17T23:19:23.360Z,97536.16
2018-10-17T23:21:52.167Z,97528.44
2018-10-17T23:24:20.792Z,97532.08
2018-10-17T23:26:49.416Z,97531.80
2018-10-17T23:29:18.028Z,97531.92
2018-10-17T23:31:46.675Z,97527.81
2018-10-17T23:34:15.264Z,97527.36
2018-10-17T23:36:43.875Z,97532.78
2018-10-17T23:39:12.568Z,97529.27
2018-10-17T23:41:41.411Z,97531.08
2018-10-17T23:44:10.072Z,97526.13
2018-10-17T23:46:38.995Z,97528.02
2018-10-17T23:49:07.575Z,97526.09
2018-10-17T23:51:36.358Z,97527.88
2018-10-17T23:54:05.060Z,97526.60
2018-10-17T23:56:33.601Z,97524.59
2018-10-17T23:59:02.539Z,97521.20
